Time;durP1;ratioP1;P1;durP2;ratioP2;P2;SDS_P1;SDS_P2;PMS_P1;PMS_P2;Temp;Humidity;BMP_temperature;BMP_pressure;BME280_temperature;BME280_humidity;BME280_pressure;Samples;Min_cycle;Max_cycle;Signal;HPM_P1;HPM_P2
2021/06/11 00:00:18;;;;;;;5.47;4.97;;;18.20;83.40;;;;;;5081162;28;27319;-69
2021/06/11 00:03:03;;;;;;;7.03;5.05;;;18.10;83.40;;;;;;5085025;28;27324;-69
2021/06/11 00:05:48;;;;;;;7.90;5.35;;;18.10;83.20;;;;;;5113091;27;27494;-69
2021/06/11 00:08:32;;;;;;;7.70;5.28;;;18.10;83.20;;;;;;5084643;28;27360;-69
2021/06/11 00:11:17;;;;;;;6.50;5.38;;;18.00;83.30;;;;;;5084967;28;27316;-68
2021/06/11 00:14:02;;;;;;;7.63;5.30;;;18.00;83.30;;;;;;5084772;28;27968;-69
2021/06/11 00:16:46;;;;;;;10.18;5.43;;;17.90;83.50;;;;;;5084234;28;27399;-69
2021/06/11 00:19:31;;;;;;;8.32;5.43;;;17.90;83.40;;;;;;5083693;28;26970;-69
2021/06/11 00:22:16;;;;;;;7.93;5.53;;;17.90;83.20;;;;;;5084167;28;27423;-68
2021/06/11 00:25:01;;;;;;;9.40;5.57;;;17.90;83.60;;;;;;5084594;28;27976;-68
2021/06/11 00:27:46;;;;;;;6.28;5.32;;;17.90;83.90;;;;;;5084636;28;27364;-70
2021/06/11 00:30:31;;;;;;;7.03;6.00;;;17.90;83.70;;;;;;5080665;28;27395;-68
2021/06/11 00:33:15;;;;;;;9.95;6.00;;;17.90;83.80;;;;;;5068534;28;27407;-68
2021/06/11 00:36:00;;;;;;;7.13;6.15;;;17.90;83.70;;;;;;5084153;28;27345;-68
2021/06/11 00:38:45;;;;;;;7.10;6.28;;;17.80;84.10;;;;;;5065979;28;27450;-68
2021/06/11 00:41:30;;;;;;;8.10;6.25;;;17.80;84.20;;;;;;5084225;28;27328;-68
2021/06/11 00:44:15;;;;;;;8.57;5.43;;;17.80;84.10;;;;;;5082812;28;27394;-69
2021/06/11 00:47:00;;;;;;;10.07;5.97;;;17.80;84.10;;;;;;5083360;28;27857;-68
2021/06/11 00:49:47;;;;;;;6.93;5.85;;;17.80;84.30;;;;;;5084228;28;27397;-68
2021/06/11 00:52:32;;;;;;;8.15;5.40;;;17.80;84.50;;;;;;5084373;28;27411;-68
2021/06/11 00:55:17;;;;;;;8.75;6.28;;;17.70;84.80;;;;;;5084032;28;27319;-68
2021/06/11 00:58:02;;;;;;;10.23;5.75;;;17.70;84.70;;;;;;5082368;28;27495;-68
2021/06/11 01:00:48;;;;;;;10.65;6.82;;;17.70;85.00;;;;;;5079923;28;27325;-68
2021/06/11 01:03:32;;;;;;;11.52;7.43;;;17.70;85.10;;;;;;5083166;28;27411;-68
2021/06/11 01:06:18;;;;;;;8.85;7.13;;;17.70;85.60;;;;;;5083229;28;27380;-67
2021/06/11 01:09:02;;;;;;;8.25;7.13;;;17.70;85.70;;;;;;5083978;28;27335;-68
2021/06/11 01:11:47;;;;;;;13.40;8.75;;;17.70;85.90;;;;;;5082701;28;27401;-68
2021/06/11 01:14:31;;;;;;;8.98;7.72;;;17.70;86.30;;;;;;5065828;28;27341;-68
2021/06/11 01:17:16;;;;;;;9.85;7.78;;;17.60;86.50;;;;;;5082807;28;26963;-68
2021/06/11 01:20:03;;;;;;;10.50;7.65;;;17.60;86.70;;;;;;5065804;28;28054;-68
2021/06/11 01:23:00;;;;;;;8.32;7.43;;;17.60;86.90;;;;;;5083883;28;27467;-68
2021/06/11 01:25:57;;;;;;;9.60;7.78;;;17.60;87.00;;;;;;5083942;28;27462;-68
2021/06/11 01:28:42;;;;;;;9.90;8.82;;;17.60;87.30;;;;;;5098473;27;27407;-68
2021/06/11 01:31:29;;;;;;;12.10;9.18;;;17.60;87.20;;;;;;5097160;27;27942;-69
2021/06/11 01:34:28;;;;;;;13.68;9.70;;;17.60;87.30;;;;;;5082770;28;27356;-68
2021/06/11 01:37:21;;;;;;;11.93;8.50;;;17.60;87.40;;;;;;5082255;28;27457;-68
2021/06/11 01:40:07;;;;;;;8.77;7.88;;;17.60;87.40;;;;;;5082991;28;27417;-68
2021/06/11 01:42:51;;;;;;;8.00;7.20;;;17.60;87.70;;;;;;5082636;28;27415;-68
2021/06/11 01:45:36;;;;;;;9.05;7.95;;;17.60;87.60;;;;;;5096961;27;27328;-68
2021/06/11 01:48:21;;;;;;;8.68;7.78;;;17.60;87.60;;;;;;5079484;28;27325;-69
2021/06/11 01:51:07;;;;;;;8.63;7.78;;;17.60;87.70;;;;;;5079312;28;27382;-68
2021/06/11 01:53:52;;;;;;;8.15;7.35;;;17.60;87.60;;;;;;5068380;28;27335;-68
2021/06/11 01:56:37;;;;;;;7.95;7.15;;;17.60;87.80;;;;;;5064868;28;27396;-69
2021/06/11 01:59:22;;;;;;;8.13;7.38;;;17.60;87.70;;;;;;5082782;28;27407;-69
2021/06/11 02:02:07;;;;;;;8.98;8.07;;;17.60;87.60;;;;;;5082745;28;27339;-68
2021/06/11 02:04:52;;;;;;;8.32;7.53;;;17.60;87.90;;;;;;5082452;28;27383;-71
2021/06/11 02:07:37;;;;;;;10.43;8.57;;;17.60;87.80;;;;;;5094599;27;27419;-69
2021/06/11 02:10:22;;;;;;;9.68;8.68;;;17.60;88.10;;;;;;5100250;27;27320;-69
2021/06/11 02:13:06;;;;;;;9.13;8.23;;;17.60;88.00;;;;;;5068443;28;27399;-69
2021/06/11 02:15:52;;;;;;;9.05;8.05;;;17.60;88.00;;;;;;5086035;28;27410;-69
2021/06/11 02:18:36;;;;;;;9.77;8.07;;;17.50;88.00;;;;;;5100215;27;27390;-69
2021/06/11 02:21:22;;;;;;;8.65;7.85;;;17.50;88.20;;;;;;5100399;27;27386;-69
2021/06/11 02:24:07;;;;;;;8.98;8.10;;;17.50;88.50;;;;;;5100403;27;27324;-69
2021/06/11 02:26:53;;;;;;;9.90;8.45;;;17.50;88.40;;;;;;5085581;28;27341;-70
2021/06/11 02:29:38;;;;;;;10.13;8.73;;;17.50;88.40;;;;;;5082721;28;27392;-70
2021/06/11 02:32:22;;;;;;;8.73;7.30;;;17.60;88.50;;;;;;5098878;27;27414;-69
2021/06/11 02:35:13;;;;;;;8.90;7.80;;;17.50;88.50;;;;;;5086507;28;27320;-69
2021/06/11 02:37:59;;;;;;;8.82;7.93;;;17.50;88.50;;;;;;5085702;28;27853;-70
2021/06/11 02:40:43;;;;;;;9.30;7.25;;;17.50;88.40;;;;;;5082444;28;27411;-69
2021/06/11 02:43:28;;;;;;;8.40;7.60;;;17.50;88.50;;;;;;5086136;28;27368;-69
2021/06/11 02:46:50;;;;;;;9.00;8.20;;;17.50;88.80;;;;;;5085453;28;27431;-69
2021/06/11 02:50:05;;;;;;;8.15;7.35;;;17.50;88.80;;;;;;5085164;28;27473;-69
2021/06/11 02:52:51;;;;;;;8.27;7.47;;;17.50;89.00;;;;;;5081864;28;27519;-69
2021/06/11 02:55:36;;;;;;;8.65;7.60;;;17.50;89.00;;;;;;5067759;28;27395;-69
2021/06/11 02:58:21;;;;;;;8.32;7.40;;;17.50;88.70;;;;;;5067415;28;27518;-70
2021/06/11 03:01:06;;;;;;;9.02;7.65;;;17.50;89.00;;;;;;5085083;28;27689;-69
2021/06/11 03:03:52;;;;;;;8.60;7.70;;;17.50;89.20;;;;;;5067391;28;27470;-69
2021/06/11 03:06:36;;;;;;;7.50;6.80;;;17.50;89.20;;;;;;5085117;28;27438;-70
2021/06/11 03:09:23;;;;;;;7.75;7.05;;;17.50;89.10;;;;;;5085013;28;27530;-71
2021/06/11 03:12:09;;;;;;;7.88;7.07;;;17.50;89.10;;;;;;5084910;28;27427;-70
2021/06/11 03:14:53;;;;;;;8.98;7.25;;;17.50;89.50;;;;;;5084907;28;27421;-71
2021/06/11 03:17:46;;;;;;;7.65;6.95;;;17.50;89.40;;;;;;5084740;28;27420;-69
2021/06/11 03:20:41;;;;;;;6.88;6.18;;;17.40;89.20;;;;;;5084830;28;27448;-69
2021/06/11 03:23:40;;;;;;;6.10;5.50;;;17.40;89.30;;;;;;5084669;28;27503;-69
2021/06/11 03:26:35;;;;;;;6.93;6.30;;;17.40;89.30;;;;;;5084821;28;27321;-70
2021/06/11 03:29:21;;;;;;;6.75;6.15;;;17.40;89.20;;;;;;5084199;28;27402;-70
2021/06/11 03:32:08;;;;;;;6.22;5.70;;;17.40;89.20;;;;;;5084798;28;27312;-69
2021/06/11 03:34:53;;;;;;;6.60;6.00;;;17.40;89.20;;;;;;5084660;28;27410;-71
2021/06/11 03:37:38;;;;;;;6.82;6.22;;;17.40;89.10;;;;;;5081453;28;27324;-69
2021/06/11 03:40:24;;;;;;;6.93;6.22;;;17.40;89.20;;;;;;5085161;28;27347;-69
2021/06/11 03:43:09;;;;;;;6.90;6.20;;;17.40;89.70;;;;;;5098713;27;27423;-69
2021/06/11 03:45:55;;;;;;;7.00;6.40;;;17.40;89.20;;;;;;5066811;28;27872;-69
2021/06/11 03:48:41;;;;;;;6.85;6.20;;;17.40;89.40;;;;;;5084489;28;27435;-70
2021/06/11 03:51:26;;;;;;;6.53;5.93;;;17.40;89.10;;;;;;5099301;27;27719;-69
2021/06/11 03:54:14;;;;;;;6.70;6.05;;;17.30;89.60;;;;;;5066561;28;27494;-71
2021/06/11 03:56:58;;;;;;;6.43;5.90;;;17.30;90.00;;;;;;5084021;28;27407;-69
2021/06/11 03:59:43;;;;;;;6.72;6.13;;;17.30;89.50;;;;;;5084363;28;27538;-69
2021/06/11 04:02:28;;;;;;;5.82;5.32;;;17.30;89.70;;;;;;5084435;28;27534;-69
2021/06/11 04:05:13;;;;;;;5.75;5.25;;;17.30;89.60;;;;;;5085074;28;27447;-69
2021/06/11 04:07:58;;;;;;;5.80;5.10;;;17.30;89.40;;;;;;5098576;27;27451;-69
2021/06/11 04:10:55;;;;;;;6.20;5.70;;;17.30;89.80;;;;;;5083903;28;27450;-69
2021/06/11 04:13:48;;;;;;;5.55;5.05;;;17.30;89.50;;;;;;5098435;27;27467;-69
2021/06/11 04:16:43;;;;;;;5.60;5.10;;;17.30;89.20;;;;;;5083770;28;27435;-69
2021/06/11 04:19:31;;;;;;;5.95;5.45;;;17.30;89.20;;;;;;5083777;28;27860;-69
2021/06/11 04:22:16;;;;;;;5.78;5.28;;;17.30;90.00;;;;;;5098038;27;27421;-69
2021/06/11 04:25:00;;;;;;;6.53;4.50;;;17.30;89.70;;;;;;5084056;28;27410;-69
2021/06/11 04:27:49;;;;;;;5.60;5.10;;;17.30;89.50;;;;;;5083725;28;27360;-69
2021/06/11 04:30:34;;;;;;;4.72;4.32;;;17.30;89.90;;;;;;5066307;28;27805;-69
2021/06/11 04:33:26;;;;;;;5.40;4.90;;;17.30;89.90;;;;;;5083195;28;27442;-69
2021/06/11 04:36:11;;;;;;;5.72;5.22;;;17.30;89.30;;;;;;5080359;28;27312;-69
2021/06/11 04:39:00;;;;;;;5.75;5.15;;;17.30;89.80;;;;;;5065656;28;27309;-69
2021/06/11 04:41:45;;;;;;;6.10;5.60;;;17.30;90.00;;;;;;5084372;28;27966;-69
2021/06/11 04:44:29;;;;;;;5.38;4.88;;;17.30;89.80;;;;;;5084292;28;27466;-69
2021/06/11 04:47:14;;;;;;;6.47;5.88;;;17.30;89.80;;;;;;5052150;28;27404;-69
2021/06/11 04:49:59;;;;;;;7.13;5.65;;;17.30;89.80;;;;;;5083738;28;27398;-69
2021/06/11 04:52:44;;;;;;;7.05;5.32;;;17.30;89.70;;;;;;5084348;28;27482;-69
2021/06/11 04:55:29;;;;;;;5.95;5.45;;;17.40;89.80;;;;;;5083478;28;27498;-69
2021/06/11 04:58:17;;;;;;;5.68;5.20;;;17.40;89.80;;;;;;5083997;28;27538;-69
2021/06/11 05:01:03;;;;;;;5.43;4.95;;;17.40;90.00;;;;;;5084216;28;26884;-69
2021/06/11 05:03:48;;;;;;;6.50;5.90;;;17.40;90.20;;;;;;5083370;28;27857;-69
2021/06/11 05:06:32;;;;;;;6.85;6.25;;;17.40;90.30;;;;;;5083862;28;27479;-70
2021/06/11 05:09:17;;;;;;;6.07;5.57;;;17.50;90.40;;;;;;5083368;28;27534;-69
2021/06/11 05:12:02;;;;;;;6.82;6.20;;;17.50;90.60;;;;;;5084103;28;27472;-70
2021/06/11 05:14:47;;;;;;;6.60;6.00;;;17.50;90.70;;;;;;5083001;28;27419;-70
2021/06/11 05:17:32;;;;;;;6.60;6.00;;;17.50;90.70;;;;;;5083290;28;27419;-70
2021/06/11 05:20:17;;;;;;;7.55;6.15;;;17.60;90.80;;;;;;5097845;27;27415;-69
2021/06/11 05:23:02;;;;;;;6.15;5.57;;;17.60;91.00;;;;;;5083758;28;27423;-70
2021/06/11 05:25:47;;;;;;;6.10;5.60;;;17.60;90.90;;;;;;5083563;28;27481;-71
2021/06/11 05:28:32;;;;;;;6.65;5.97;;;17.60;91.00;;;;;;5097462;27;27469;-69
2021/06/11 05:31:16;;;;;;;6.63;6.00;;;17.70;90.90;;;;;;5083531;28;27462;-71
2021/06/11 05:34:01;;;;;;;7.22;6.53;;;17.70;91.00;;;;;;5065377;28;27410;-69
2021/06/11 05:36:46;;;;;;;7.30;6.43;;;17.70;90.90;;;;;;5083450;28;27969;-70
2021/06/11 05:39:31;;;;;;;6.45;5.85;;;17.70;90.90;;;;;;5082782;28;27611;-72
2021/06/11 05:42:16;;;;;;;6.55;6.03;;;17.70;91.00;;;;;;5082491;28;27443;-72
2021/06/11 05:45:01;;;;;;;6.53;5.93;;;17.80;91.30;;;;;;5086437;28;27430;-69
2021/06/11 05:47:46;;;;;;;7.47;6.63;;;17.80;91.30;;;;;;5082852;28;27877;-69
2021/06/11 05:54:42;;;;;;;6.30;5.70;;;18.00;91.50;;;;;;5083651;28;27419;-70
2021/06/11 05:57:42;;;;;;;7.93;6.43;;;18.10;91.80;;;;;;5068532;28;27423;-70
2021/06/11 06:00:51;;;;;;;7.18;6.07;;;18.20;91.60;;;;;;5086022;28;27444;-70
2021/06/11 06:03:40;;;;;;;6.55;5.85;;;18.40;91.50;;;;;;5085909;28;27395;-74
2021/06/11 06:06:37;;;;;;;7.47;6.53;;;18.50;91.60;;;;;;5086696;28;27497;-70
2021/06/11 06:09:28;;;;;;;7.13;6.45;;;18.60;91.90;;;;;;5068842;28;27475;-70
2021/06/11 06:12:21;;;;;;;6.72;6.13;;;18.70;91.90;;;;;;5100671;27;27402;-69
2021/06/11 06:15:16;;;;;;;7.63;6.25;;;18.80;92.00;;;;;;5085693;28;27424;-69
2021/06/11 06:18:10;;;;;;;6.53;5.93;;;18.90;92.20;;;;;;5085810;28;27423;-69
2021/06/11 06:21:02;;;;;;;7.47;6.78;;;19.00;92.20;;;;;;5072432;28;27367;-70
2021/06/11 06:23:57;;;;;;;7.97;6.97;;;19.10;92.30;;;;;;5086550;28;27837;-70
2021/06/11 06:26:50;;;;;;;8.50;6.80;;;19.30;92.60;;;;;;5086513;28;27426;-70
2021/06/11 06:29:38;;;;;;;7.38;6.35;;;19.40;92.70;;;;;;5086121;28;27468;-68
2021/06/11 06:32:29;;;;;;;7.20;6.50;;;19.50;92.70;;;;;;5084899;28;27371;-70
2021/06/11 06:35:20;;;;;;;6.75;6.15;;;19.60;93.00;;;;;;5085915;28;27477;-69
2021/06/11 06:38:18;;;;;;;7.40;6.70;;;19.70;93.00;;;;;;5071903;28;27529;-70
2021/06/11 06:41:08;;;;;;;8.05;7.35;;;19.80;93.10;;;;;;5072057;28;27423;-68
2021/06/11 06:44:05;;;;;;;8.38;7.10;;;19.90;93.00;;;;;;5068241;28;27403;-70
2021/06/11 06:47:01;;;;;;;9.55;6.93;;;20.00;93.00;;;;;;5086547;28;27946;-70
2021/06/11 06:49:53;;;;;;;8.50;6.80;;;20.10;93.00;;;;;;5082221;28;27320;-70
2021/06/11 06:52:45;;;;;;;10.82;7.32;;;20.30;93.50;;;;;;5058078;28;27434;-70
2021/06/11 06:55:36;;;;;;;9.27;7.28;;;20.40;93.70;;;;;;5098265;27;27419;-69
2021/06/11 06:58:38;;;;;;;8.15;7.45;;;20.50;93.70;;;;;;5099718;27;27477;-71
2021/06/11 07:01:27;;;;;;;7.55;6.85;;;20.70;93.50;;;;;;5085612;28;27324;-71
2021/06/11 07:04:27;;;;;;;10.55;7.32;;;20.80;93.30;;;;;;5085326;28;27408;-71
2021/06/11 07:07:27;;;;;;;9.52;8.52;;;20.90;93.10;;;;;;5085199;28;27327;-71
2021/06/11 07:10:25;;;;;;;9.82;8.52;;;21.10;93.40;;;;;;5085015;28;27836;-71
2021/06/11 07:13:46;;;;;;;9.25;8.20;;;21.20;93.70;;;;;;5075262;28;27359;-71
2021/06/11 07:16:43;;;;;;;9.98;7.47;;;21.30;93.90;;;;;;5085182;28;27344;-70
2021/06/11 07:19:36;;;;;;;10.70;7.72;;;21.50;94.00;;;;;;5053881;28;27462;-70
2021/06/11 07:22:24;;;;;;;9.20;7.70;;;21.60;94.00;;;;;;5081921;28;27402;-71
2021/06/11 07:25:17;;;;;;;8.05;7.35;;;21.70;94.20;;;;;;5098714;27;27486;-71
2021/06/11 07:28:12;;;;;;;8.75;7.95;;;21.90;94.40;;;;;;5070929;28;27484;-72
2021/06/11 07:31:20;;;;;;;10.15;7.90;;;22.00;94.80;;;;;;5085060;28;27379;-72
2021/06/11 07:34:48;;;;;;;10.07;9.07;;;22.10;94.30;;;;;;5071710;28;27360;-75
2021/06/11 07:38:03;;;;;;;9.45;8.43;;;22.30;94.90;;;;;;5084392;28;27413;-74
2021/06/11 07:41:41;;;;;;;11.65;9.65;;;22.50;95.10;;;;;;5085012;28;27468;-73
2021/06/11 07:44:32;;;;;;;10.68;8.27;;;22.60;94.60;;;;;;5084951;28;27378;-70
2021/06/11 07:47:26;;;;;;;10.43;9.38;;;22.80;94.60;;;;;;5070632;28;27969;-72
2021/06/11 07:50:17;;;;;;;13.32;9.60;;;22.90;94.60;;;;;;5081226;28;27450;-72
2021/06/11 07:53:06;;;;;;;10.15;9.25;;;23.10;94.40;;;;;;5067723;28;27376;-72
2021/06/11 07:56:10;;;;;;;11.50;10.40;;;23.20;94.40;;;;;;5084709;28;27484;-72
2021/06/11 07:59:17;;;;;;;9.98;9.05;;;23.40;94.00;;;;;;5068751;28;27353;-72
2021/06/11 08:02:16;;;;;;;10.07;9.13;;;23.50;94.10;;;;;;5084634;28;27374;-71
2021/06/11 08:05:17;;;;;;;9.82;8.93;;;23.70;94.20;;;;;;5071349;28;27369;-72
2021/06/11 08:08:12;;;;;;;11.63;10.52;;;23.80;94.30;;;;;;5098732;27;27463;-72
2021/06/11 08:11:09;;;;;;;11.02;10.02;;;24.00;94.10;;;;;;5054723;28;27460;-72
2021/06/11 08:14:04;;;;;;;11.10;9.15;;;24.20;94.30;;;;;;5070053;28;27473;-72
2021/06/11 08:16:57;;;;;;;9.60;8.70;;;24.30;93.90;;;;;;5071053;28;27391;-72
2021/06/11 08:19:49;;;;;;;9.27;8.43;;;24.50;93.80;;;;;;5084065;28;27466;-72
2021/06/11 08:22:49;;;;;;;10.15;9.15;;;24.70;94.10;;;;;;5084061;28;27336;-72
2021/06/11 08:25:42;;;;;;;9.57;8.68;;;24.80;94.20;;;;;;5084756;28;27344;-71
2021/06/11 08:28:30;;;;;;;10.25;9.25;;;25.00;94.50;;;;;;5070270;28;27493;-73
2021/06/11 08:31:29;;;;;;;10.32;9.18;;;25.20;94.00;;;;;;5084663;28;27378;-73
2021/06/11 08:34:19;;;;;;;9.77;8.98;;;25.40;93.80;;;;;;5083792;28;27480;-73
2021/06/11 08:37:09;;;;;;;9.82;8.93;;;25.60;93.50;;;;;;5084417;28;27410;-73
2021/06/11 08:40:13;;;;;;;9.23;8.43;;;25.70;93.30;;;;;;5083812;28;27341;-74
2021/06/11 08:43:14;;;;;;;9.57;8.43;;;25.90;93.30;;;;;;5071154;28;27415;-74
2021/06/11 08:46:19;;;;;;;9.55;8.43;;;26.10;93.40;;;;;;5084655;28;27370;-74
2021/06/11 08:49:26;;;;;;;8.63;7.85;;;26.30;93.10;;;;;;5069878;28;27505;-75
2021/06/11 08:52:21;;;;;;;8.80;7.85;;;26.50;92.80;;;;;;5084369;28;27321;-74
2021/06/11 08:55:17;;;;;;;10.52;8.85;;;26.60;92.70;;;;;;5070768;28;27440;-74
2021/06/11 08:58:10;;;;;;;9.93;9.02;;;26.60;74.60;;;;;;5083507;28;27491;-72
2021/06/11 09:01:06;;;;;;;9.27;8.10;;;26.70;71.60;;;;;;5084601;28;27363;-72
2021/06/11 09:04:05;;;;;;;9.98;8.95;;;26.80;70.60;;;;;;5070825;28;27364;-72
2021/06/11 09:06:53;;;;;;;13.82;9.32;;;26.90;69.70;;;;;;5083704;28;27403;-71
2021/06/11 09:10:00;;;;;;;9.38;8.48;;;26.90;67.60;;;;;;5097979;27;27417;-71
2021/06/11 09:12:53;;;;;;;10.95;7.97;;;27.00;68.30;;;;;;5055992;28;27345;-71
2021/06/11 09:15:53;;;;;;;10.23;7.88;;;27.00;69.50;;;;;;5069509;28;27388;-72
2021/06/11 09:19:12;;;;;;;9.45;7.78;;;27.20;73.80;;;;;;5073447;28;27394;-72
2021/06/11 09:22:04;;;;;;;8.70;7.80;;;27.40;77.50;;;;;;5087568;28;27337;-71
2021/06/11 09:25:06;;;;;;;;;;;;;;;;;;;;;
2021/06/11 09:28:10;;;;;;;7.95;7.25;;;27.60;72.40;;;;;;5087923;28;27422;-74
2021/06/11 09:31:06;;;;;;;8.27;7.57;;;27.80;78.70;;;;;;5086879;28;27442;-75
2021/06/11 09:33:56;;;;;;;9.88;8.50;;;28.00;81.40;;;;;;5071432;28;27411;-75
2021/06/11 09:36:59;;;;;;;10.23;7.60;;;28.20;83.80;;;;;;5069987;28;27408;-74
2021/06/11 09:40:14;;;;;;;8.88;8.15;;;28.40;83.50;;;;;;5086785;28;27420;-75
2021/06/11 09:43:14;;;;;;;8.57;7.88;;;28.50;84.40;;;;;;5087404;28;27378;-75
2021/06/11 09:46:15;;;;;;;8.73;7.88;;;28.40;85.80;;;;;;5087558;28;27836;-74
2021/06/11 09:49:16;;;;;;;8.63;7.90;;;28.30;85.70;;;;;;5074182;28;27395;-74
2021/06/11 09:52:22;;;;;;;10.43;9.10;;;28.00;84.70;;;;;;5086545;28;27395;-73
2021/06/11 09:55:45;;;;;;;9.60;8.70;;;27.70;83.80;;;;;;5073453;28;27490;-74
2021/06/11 09:58:45;;;;;;;11.65;8.68;;;27.30;80.50;;;;;;5083055;28;27425;-74
2021/06/11 10:01:43;;;;;;;9.60;8.80;;;26.90;82.30;;;;;;5086472;28;27377;-74
2021/06/11 10:04:35;;;;;;;8.70;8.02;;;26.60;83.70;;;;;;5086399;28;27364;-74
2021/06/11 10:07:38;;;;;;;10.63;9.52;;;26.30;85.00;;;;;;5100997;27;27424;-74
2021/06/11 10:10:29;;;;;;;10.10;9.05;;;26.10;85.90;;;;;;5086128;28;27329;-74
2021/06/11 10:13:34;;;;;;;11.55;9.27;;;25.80;87.10;;;;;;5058551;28;27321;-74
2021/06/11 10:16:27;;;;;;;10.52;9.52;;;25.70;88.60;;;;;;5086300;28;27403;-75
2021/06/11 10:19:38;;;;;;;10.25;9.32;;;25.60;89.40;;;;;;5085825;28;27428;-74
2021/06/11 10:22:30;;;;;;;11.45;10.35;;;25.50;89.30;;;;;;5086668;28;27458;-74
2021/06/11 10:25:22;;;;;;;10.98;10.02;;;25.40;89.70;;;;;;5068881;28;27350;-75
2021/06/11 10:28:20;;;;;;;11.88;10.80;;;25.50;90.00;;;;;;5100357;27;27423;-75
2021/06/11 10:31:25;;;;;;;11.30;10.32;;;25.70;91.70;;;;;;5072721;28;27443;-76
2021/06/11 10:34:18;;;;;;;11.10;9.93;;;26.10;91.90;;;;;;5085275;28;28002;-75
2021/06/11 10:37:34;;;;;;;11.40;9.85;;;26.50;92.00;;;;;;5082751;28;27322;-75
2021/06/11 10:40:50;;;;;;;10.80;9.82;;;27.00;91.20;;;;;;5086155;28;27321;-74
2021/06/11 10:43:43;;;;;;;12.10;9.73;;;27.40;91.10;;;;;;5082570;28;27335;-76
2021/06/11 10:46:32;;;;;;;10.77;9.23;;;27.70;90.60;;;;;;5057941;28;28041;-75
2021/06/11 10:49:26;;;;;;;10.10;9.05;;;28.00;90.90;;;;;;5071463;28;27510;-76
2021/06/11 10:52:36;;;;;;;10.13;9.25;;;28.30;89.00;;;;;;5082883;28;27465;-76
2021/06/11 10:55:37;;;;;;;9.52;8.63;;;28.50;89.90;;;;;;5054514;28;27419;-75
2021/06/11 10:58:38;;;;;;;9.48;8.57;;;28.80;89.40;;;;;;5071413;28;27501;-75
2021/06/11 11:01:32;;;;;;;8.52;7.90;;;29.00;90.10;;;;;;5086339;28;27351;-75
2021/06/11 11:04:53;;;;;;;8.82;8.05;;;29.20;87.60;;;;;;5072348;28;27454;-74
2021/06/11 11:07:53;;;;;;;11.20;7.97;;;29.40;90.70;;;;;;5085743;28;27430;-73
2021/06/11 11:10:48;;;;;;;8.82;8.02;;;29.50;88.00;;;;;;5071564;28;27849;-73
2021/06/11 11:13:42;;;;;;;7.80;7.20;;;29.50;85.80;;;;;;5085308;28;27437;-74
2021/06/11 11:16:36;;;;;;;8.55;7.95;;;29.30;85.20;;;;;;5085219;28;27420;-74
2021/06/11 11:19:46;;;;;;;9.13;8.05;;;29.20;85.60;;;;;;5085657;28;27469;-75
2021/06/11 11:22:40;;;;;;;8.52;7.72;;;29.00;84.50;;;;;;5067979;28;27388;-74
2021/06/11 11:25:34;;;;;;;8.48;7.78;;;28.70;84.10;;;;;;5071622;28;27387;-75
2021/06/11 11:28:36;;;;;;;9.95;8.82;;;28.60;86.90;;;;;;5085221;28;27358;-74
2021/06/11 11:31:30;;;;;;;8.70;7.90;;;28.50;85.20;;;;;;5085780;28;27445;-76
2021/06/11 11:34:30;;;;;;;9.55;8.52;;;28.40;89.60;;;;;;5072113;28;27889;-74
2021/06/11 11:37:33;;;;;;;8.45;7.75;;;28.60;89.20;;;;;;5098805;27;27493;-74
2021/06/11 11:40:25;;;;;;;8.63;7.82;;;28.80;86.90;;;;;;5084111;28;27329;-77
2021/06/11 11:43:16;;;;;;;9.02;8.23;;;28.90;85.70;;;;;;5070262;28;27614;-76
2021/06/11 11:46:16;;;;;;;9.45;8.40;;;29.10;84.90;;;;;;5071279;28;27489;-75
2021/06/11 11:49:21;;;;;;;8.57;7.82;;;29.30;89.20;;;;;;5084620;28;27489;-73
2021/06/11 11:52:28;;;;;;;8.55;7.85;;;29.50;85.60;;;;;;5055093;28;27512;-73
2021/06/11 11:55:19;;;;;;;8.13;7.40;;;29.60;85.30;;;;;;5071280;28;27434;-72
2021/06/11 11:58:25;;;;;;;9.27;7.78;;;29.80;82.70;;;;;;5085023;28;27447;-71
2021/06/11 12:01:17;;;;;;;7.70;7.00;;;29.80;81.10;;;;;;5071113;28;27502;-71
2021/06/11 12:04:06;;;;;;;9.30;7.35;;;29.90;83.20;;;;;;5070708;28;27332;-72
2021/06/11 12:07:00;;;;;;;7.63;7.00;;;30.00;79.00;;;;;;5098835;27;27494;-72
2021/06/11 12:10:04;;;;;;;7.97;7.22;;;30.10;78.00;;;;;;5070778;28;27428;-75
2021/06/11 12:13:06;;;;;;;7.93;6.88;;;30.10;80.70;;;;;;5084334;28;27502;-73
2021/06/11 12:16:22;;;;;;;7.68;7.07;;;30.20;82.60;;;;;;5084457;28;27403;-74
2021/06/11 12:19:15;;;;;;;7.38;6.63;;;30.30;81.70;;;;;;5084193;28;27459;-73
2021/06/11 12:22:04;;;;;;;7.32;6.72;;;30.30;77.10;;;;;;5080991;28;27861;-75
2021/06/11 12:24:56;;;;;;;7.55;6.90;;;30.30;78.00;;;;;;5066800;28;27487;-74
2021/06/11 12:27:56;;;;;;;7.53;6.90;;;30.40;85.20;;;;;;5084144;28;27333;-74
2021/06/11 12:30:54;;;;;;;7.90;7.13;;;30.50;85.60;;;;;;5080968;28;27368;-74
2021/06/11 12:33:50;;;;;;;8.20;7.40;;;30.40;81.30;;;;;;5070437;28;27983;-73
2021/06/11 12:36:40;;;;;;;7.60;6.88;;;30.20;81.10;;;;;;5067754;28;27433;-73
2021/06/11 12:39:31;;;;;;;7.15;6.60;;;30.00;82.50;;;;;;5083580;28;27434;-73
2021/06/11 12:42:29;;;;;;;7.20;6.43;;;30.00;83.50;;;;;;5083894;28;27336;-73
2021/06/11 12:45:24;;;;;;;6.95;6.35;;;30.00;83.00;;;;;;5083825;28;27431;-72
2021/06/11 12:48:16;;;;;;;8.07;6.55;;;29.80;79.50;;;;;;5084380;28;27427;-73
2021/06/11 12:51:06;;;;;;;9.82;7.18;;;29.70;79.10;;;;;;5083768;28;27321;-73
2021/06/11 12:53:54;;;;;;;8.30;7.47;;;29.60;80.50;;;;;;5080789;28;27436;-74
2021/06/11 12:56:44;;;;;;;8.95;6.72;;;29.60;82.70;;;;;;5066570;28;27391;-74
2021/06/11 12:59:44;;;;;;;8.57;7.03;;;29.60;78.90;;;;;;5083617;28;27442;-73
2021/06/11 13:02:41;;;;;;;8.88;7.22;;;29.60;79.90;;;;;;5083647;28;27384;-73
2021/06/11 13:05:37;;;;;;;7.88;7.18;;;29.60;77.80;;;;;;5096438;27;27730;-74
2021/06/11 13:08:28;;;;;;;7.35;6.65;;;29.70;78.80;;;;;;5083753;28;27321;-75
2021/06/11 13:11:19;;;;;;;6.18;5.68;;;29.80;76.60;;;;;;5083710;28;27600;-76
2021/06/11 13:14:14;;;;;;;6.93;6.22;;;29.70;72.80;;;;;;5084138;28;27430;-72
2021/06/11 13:17:05;;;;;;;7.07;6.43;;;29.60;77.00;;;;;;5083206;28;27481;-72
2021/06/11 13:19:56;;;;;;;7.85;6.53;;;29.50;76.90;;;;;;5069662;28;27406;-72
2021/06/11 13:22:45;;;;;;;7.80;6.53;;;29.40;76.00;;;;;;5083816;28;27458;-74
2021/06/11 13:25:35;;;;;;;9.25;7.13;;;29.20;75.30;;;;;;5083516;28;27321;-73
2021/06/11 13:28:30;;;;;;;7.15;6.45;;;29.10;73.60;;;;;;5083837;28;27475;-71
2021/06/11 13:31:27;;;;;;;6.85;6.20;;;29.00;75.90;;;;;;5069347;28;27911;-71
2021/06/11 13:34:16;;;;;;;8.13;7.28;;;28.90;78.90;;;;;;5055289;28;27447;-71
2021/06/11 13:37:04;;;;;;;6.97;6.38;;;28.90;80.40;;;;;;5083086;28;27398;-71
2021/06/11 13:39:56;;;;;;;6.95;6.35;;;28.90;76.60;;;;;;5082970;28;27509;-72
2021/06/11 13:43:04;;;;;;;8.25;6.78;;;29.00;82.00;;;;;;5083716;28;27391;-72
2021/06/11 13:46:00;;;;;;;7.28;6.07;;;29.00;82.50;;;;;;5083643;28;27486;-75
2021/06/11 13:48:51;;;;;;;6.47;5.82;;;29.10;82.80;;;;;;5065770;28;26957;-72
2021/06/11 13:51:40;;;;;;;6.75;6.05;;;29.20;79.30;;;;;;5083351;28;27373;-73
2021/06/11 13:54:33;;;;;;;8.88;5.55;;;29.30;84.40;;;;;;5083498;28;27498;-76
2021/06/11 13:57:29;;;;;;;6.32;5.72;;;29.40;79.70;;;;;;5082525;28;27424;-72
2021/06/11 14:00:26;;;;;;;7.60;5.63;;;29.50;82.80;;;;;;5082843;28;26914;-74
2021/06/11 14:03:18;;;;;;;7.30;6.55;;;29.50;79.70;;;;;;5070006;28;27524;-73
2021/06/11 14:06:12;;;;;;;5.93;5.43;;;29.60;79.30;;;;;;5086154;28;27462;-72
2021/06/11 14:09:06;;;;;;;7.05;6.45;;;29.60;80.50;;;;;;5072683;28;27494;-72
2021/06/11 14:11:59;;;;;;;6.93;6.30;;;29.60;80.90;;;;;;5072496;28;27410;-73
2021/06/11 14:14:48;;;;;;;6.03;5.53;;;29.70;81.60;;;;;;5072671;28;27499;-76
2021/06/11 14:17:42;;;;;;;6.47;5.90;;;29.80;78.20;;;;;;5086102;28;27407;-72
2021/06/11 14:20:34;;;;;;;6.13;5.53;;;29.80;79.40;;;;;;5082582;28;27501;-70
2021/06/11 14:23:28;;;;;;;7.10;6.00;;;29.80;77.40;;;;;;5086363;28;27478;-73
2021/06/11 14:26:19;;;;;;;6.65;5.82;;;29.80;77.90;;;;;;5071441;28;27423;-71
2021/06/11 14:29:09;;;;;;;6.30;5.20;;;29.80;78.30;;;;;;5086875;28;27442;-72
2021/06/11 14:31:58;;;;;;;5.95;5.45;;;29.90;77.00;;;;;;5085749;28;27398;-78
2021/06/11 14:34:51;;;;;;;7.15;5.70;;;30.00;75.50;;;;;;5049120;28;27433;-71
2021/06/11 14:37:44;;;;;;;7.75;6.65;;;30.10;75.90;;;;;;5066390;28;27354;-72
2021/06/11 14:40:34;;;;;;;6.93;5.65;;;30.00;52.20;;;;;;5052327;28;27429;-75
2021/06/11 14:43:36;;;;;;;6.85;5.20;;;29.90;51.20;;;;;;5066345;28;27473;-71
2021/06/11 14:46:31;;;;;;;5.63;5.13;;;29.90;57.10;;;;;;5079864;28;27400;-72
2021/06/11 14:49:41;;;;;;;6.00;5.45;;;29.90;62.10;;;;;;5051102;28;27328;-76
2021/06/11 14:52:42;;;;;;;5.18;4.68;;;29.90;64.20;;;;;;5065271;28;27868;-78
2021/06/11 14:58:46;;;;;;;7.60;4.90;;;29.90;60.30;;;;;;5076417;28;27476;-77
2021/06/11 15:01:31;;;;;;;5.22;4.72;;;29.80;51.30;;;;;;5079747;28;27468;-68
2021/06/11 15:04:16;;;;;;;4.60;4.20;;;29.80;56.80;;;;;;5065172;28;27857;-71